Terminal Aerodrome Forecast
Issued by NWS

Home | Current Version | Previous Version | Text Only | Print | Product List | Glossary On
Versions: 1 2 3 4 5 6 7 8 9 10 11 12 13 14 15 16 17 18 19
000
FTUS45 KBOU 211631 AAB
TAFAPA
TAF AMD
KAPA 211631Z 2117/2212 04012KT P6SM -SHRA BKN020 OVC045
     FM212100 10007KT P6SM SCT025 BKN050
     FM212300 15007KT P6SM FEW060 SCT110
     FM220100 19008KT P6SM FEW110 SCT250=

USA.gov is the U.S. government's official web portal to all federal, state and local government web resources and services.